BCC981 EDDN-EDDK
Flight info
| Callsign | BCC981 |
|---|---|
| Flight time | 0h 41m |
| Altitude | 24000 |
| Route | ERETO1G/28 ERETO DCT LONLI L984 ASKIK T840 GULKO |
| Aircraft | A320/M-SDE3FGHIRWY/LB1 |
Departure
| Time | 2026-04-24 21:00 |
|---|---|
| Airport | Nuremberg Airport (EDDN) |
Arrival
| Time | 2026-04-24 21:41 |
|---|---|
| Airport | Cologne Bonn Airport (EDDK) |
| Time | Latitude | Longitude | Altitude | Speed | Heading |
|---|---|---|---|---|---|
| 2026-04-24 20:19 | 49.49590 | 11.08133 | 1040 ft | 0 kts | 190° |
| 2026-04-24 20:50 | 49.49588 | 11.08132 | 1040 ft | 2 kts | 190° |
| 2026-04-24 20:50 | 49.49587 | 11.08132 | 1040 ft | 0 kts | 190° |
| 2026-04-24 20:55 | 49.49577 | 11.08130 | 1040 ft | 4 kts | 187° |
| 2026-04-24 20:55 | 49.49545 | 11.08178 | 1038 ft | 9 kts | 101° |
| 2026-04-24 20:56 | 49.49539 | 11.08250 | 1039 ft | 7 kts | 97° |
| 2026-04-24 20:56 | 49.49537 | 11.08318 | 1041 ft | 7 kts | 77° |
| 2026-04-24 20:56 | 49.49585 | 11.08363 | 1043 ft | 10 kts | 18° |
| 2026-04-24 20:56 | 49.49615 | 11.08452 | 1043 ft | 12 kts | 100° |
| 2026-04-24 20:57 | 49.49602 | 11.08579 | 1045 ft | 12 kts | 98° |
| 2026-04-24 20:57 | 49.49590 | 11.08714 | 1046 ft | 13 kts | 98° |
| 2026-04-24 20:57 | 49.49576 | 11.08862 | 1048 ft | 14 kts | 99° |
| 2026-04-24 20:57 | 49.49559 | 11.09017 | 1049 ft | 16 kts | 99° |
| 2026-04-24 20:58 | 49.49544 | 11.09189 | 1050 ft | 17 kts | 99° |
| 2026-04-24 20:58 | 49.49541 | 11.09367 | 1054 ft | 17 kts | 72° |
| 2026-04-24 20:58 | 49.49608 | 11.09516 | 1056 ft | 17 kts | 51° |
| 2026-04-24 20:58 | 49.49699 | 11.09522 | 1059 ft | 16 kts | 299° |
| 2026-04-24 20:59 | 49.49723 | 11.09314 | 1056 ft | 28 kts | 278° |
| 2026-04-24 20:59 | 49.49780 | 11.08724 | 1045 ft | 90 kts | 279° |
| 2026-04-24 20:59 | 49.49902 | 11.07481 | 1046 ft | 142 kts | 278° |
| 2026-04-24 20:59 | 49.50063 | 11.05843 | 1370 ft | 156 kts | 279° |
| 2026-04-24 21:00 | 49.50214 | 11.04199 | 1990 ft | 157 kts | 281° |
| 2026-04-24 21:00 | 49.50381 | 11.02522 | 2591 ft | 160 kts | 282° |
| 2026-04-24 21:00 | 49.50548 | 11.00825 | 3180 ft | 162 kts | 281° |
| 2026-04-24 21:00 | 49.50710 | 10.99099 | 3777 ft | 162 kts | 281° |
| 2026-04-24 21:01 | 49.50874 | 10.97369 | 4341 ft | 169 kts | 280° |
| 2026-04-24 21:01 | 49.51063 | 10.95467 | 4627 ft | 191 kts | 281° |
| 2026-04-24 21:01 | 49.51556 | 10.93471 | 4883 ft | 214 kts | 313° |
| 2026-04-24 21:01 | 49.52912 | 10.92339 | 5234 ft | 239 kts | 349° |
| 2026-04-24 21:02 | 49.54651 | 10.92128 | 5750 ft | 260 kts | 359° |
| 2026-04-24 21:02 | 49.56487 | 10.92203 | 6603 ft | 267 kts | 1° |
| 2026-04-24 21:02 | 49.58354 | 10.92360 | 7450 ft | 271 kts | 2° |
| 2026-04-24 21:02 | 49.60246 | 10.92517 | 8335 ft | 274 kts | 2° |
| 2026-04-24 21:03 | 49.62162 | 10.92648 | 9210 ft | 277 kts | 1° |
| 2026-04-24 21:03 | 49.64099 | 10.92746 | 10074 ft | 280 kts | 1° |
| 2026-04-24 21:03 | 49.66087 | 10.92722 | 10538 ft | 297 kts | 351° |
| 2026-04-24 21:03 | 49.68135 | 10.91904 | 10740 ft | 320 kts | 343° |
| 2026-04-24 21:04 | 49.70341 | 10.90862 | 10899 ft | 343 kts | 342° |
| 2026-04-24 21:04 | 49.72675 | 10.89734 | 11293 ft | 357 kts | 342° |
| 2026-04-24 21:04 | 49.75061 | 10.88574 | 11941 ft | 362 kts | 342° |
| 2026-04-24 21:04 | 49.77481 | 10.87402 | 12617 ft | 365 kts | 342° |
| 2026-04-24 21:05 | 49.79920 | 10.86225 | 13310 ft | 369 kts | 342° |
| 2026-04-24 21:05 | 49.82389 | 10.85036 | 13972 ft | 373 kts | 341° |
| 2026-04-24 21:05 | 49.84882 | 10.83835 | 14556 ft | 377 kts | 341° |
| 2026-04-24 21:05 | 49.87402 | 10.82617 | 15147 ft | 380 kts | 341° |
| 2026-04-24 21:06 | 49.89940 | 10.81388 | 15742 ft | 384 kts | 341° |
| 2026-04-24 21:06 | 49.92504 | 10.80151 | 16331 ft | 387 kts | 341° |
| 2026-04-24 21:06 | 49.95088 | 10.78904 | 16944 ft | 391 kts | 341° |
| 2026-04-24 21:06 | 49.97697 | 10.77639 | 17555 ft | 394 kts | 340° |
| 2026-04-24 21:07 | 50.00319 | 10.76338 | 18188 ft | 397 kts | 337° |
| 2026-04-24 21:07 | 50.02772 | 10.74379 | 18740 ft | 397 kts | 323° |
| 2026-04-24 21:07 | 50.04820 | 10.71514 | 19291 ft | 397 kts | 309° |
| 2026-04-24 21:07 | 50.06352 | 10.67937 | 19852 ft | 398 kts | 295° |
| 2026-04-24 21:08 | 50.07264 | 10.63873 | 20393 ft | 400 kts | 282° |
| 2026-04-24 21:08 | 50.07510 | 10.59556 | 20922 ft | 403 kts | 271° |
| 2026-04-24 21:08 | 50.07498 | 10.55182 | 21430 ft | 405 kts | 270° |
| 2026-04-24 21:08 | 50.07476 | 10.50783 | 21915 ft | 407 kts | 270° |
| 2026-04-24 21:09 | 50.07452 | 10.46424 | 22360 ft | 409 kts | 270° |
| 2026-04-24 21:09 | 50.07431 | 10.41987 | 22810 ft | 411 kts | 270° |
| 2026-04-24 21:09 | 50.07410 | 10.37522 | 23246 ft | 414 kts | 270° |
| 2026-04-24 21:09 | 50.07387 | 10.33030 | 23672 ft | 416 kts | 270° |
| 2026-04-24 21:10 | 50.07361 | 10.28521 | 24019 ft | 418 kts | 270° |
| 2026-04-24 21:10 | 50.07335 | 10.23999 | 24136 ft | 419 kts | 270° |
| 2026-04-24 21:10 | 50.07312 | 10.19403 | 24167 ft | 429 kts | 270° |
| 2026-04-24 21:10 | 50.07292 | 10.14717 | 24170 ft | 435 kts | 270° |
| 2026-04-24 21:11 | 50.07271 | 10.09997 | 24168 ft | 437 kts | 270° |
| 2026-04-24 21:11 | 50.07248 | 10.05261 | 24169 ft | 437 kts | 270° |
| 2026-04-24 21:11 | 50.07216 | 10.00526 | 24161 ft | 437 kts | 270° |
| 2026-04-24 21:11 | 50.07178 | 9.95800 | 24168 ft | 437 kts | 270° |
| 2026-04-24 21:12 | 50.07134 | 9.91068 | 24167 ft | 437 kts | 270° |
| 2026-04-24 21:12 | 50.07102 | 9.87929 | 24168 ft | 437 kts | 270° |
| 2026-04-24 21:12 | 50.07036 | 9.81664 | 24167 ft | 437 kts | 270° |
| 2026-04-24 21:12 | 50.06986 | 9.76934 | 24166 ft | 437 kts | 269° |
| 2026-04-24 21:13 | 50.06937 | 9.72201 | 24158 ft | 437 kts | 270° |
| 2026-04-24 21:13 | 50.06889 | 9.67471 | 24160 ft | 437 kts | 269° |
| 2026-04-24 21:13 | 50.06843 | 9.62739 | 24159 ft | 437 kts | 270° |
| 2026-04-24 21:13 | 50.06796 | 9.58014 | 24149 ft | 436 kts | 270° |
| 2026-04-24 21:14 | 50.06747 | 9.53292 | 24155 ft | 436 kts | 269° |
| 2026-04-24 21:14 | 50.06694 | 9.48574 | 24150 ft | 436 kts | 269° |
| 2026-04-24 21:14 | 50.06639 | 9.43854 | 24145 ft | 436 kts | 269° |
| 2026-04-24 21:14 | 50.06582 | 9.39134 | 24143 ft | 436 kts | 269° |
| 2026-04-24 21:15 | 50.06520 | 9.34411 | 24143 ft | 436 kts | 269° |
| 2026-04-24 21:15 | 50.06457 | 9.29695 | 24153 ft | 436 kts | 269° |
| 2026-04-24 21:15 | 50.06394 | 9.24978 | 24144 ft | 436 kts | 269° |
| 2026-04-24 21:15 | 50.06331 | 9.20257 | 24143 ft | 436 kts | 269° |
| 2026-04-24 21:16 | 50.06266 | 9.15535 | 24146 ft | 436 kts | 269° |
| 2026-04-24 21:16 | 50.06197 | 9.10816 | 24148 ft | 436 kts | 269° |
| 2026-04-24 21:16 | 50.06122 | 9.06098 | 24150 ft | 436 kts | 269° |
| 2026-04-24 21:16 | 50.06045 | 9.01376 | 24150 ft | 436 kts | 269° |
| 2026-04-24 21:17 | 50.05968 | 8.96713 | 24154 ft | 436 kts | 269° |
| 2026-04-24 21:17 | 50.05886 | 8.92001 | 24149 ft | 436 kts | 269° |
| 2026-04-24 21:17 | 50.05800 | 8.87283 | 24149 ft | 436 kts | 268° |
| 2026-04-24 21:17 | 50.05741 | 8.84091 | 24157 ft | 436 kts | 268° |
| 2026-04-24 21:18 | 50.05632 | 8.78225 | 24149 ft | 436 kts | 268° |
| 2026-04-24 21:18 | 50.05546 | 8.73506 | 24154 ft | 436 kts | 268° |
| 2026-04-24 21:18 | 50.05638 | 8.68794 | 24159 ft | 436 kts | 276° |
| 2026-04-24 21:18 | 50.06202 | 8.64162 | 24160 ft | 437 kts | 284° |
| 2026-04-24 21:19 | 50.07275 | 8.59737 | 24153 ft | 438 kts | 295° |
| 2026-04-24 21:19 | 50.08865 | 8.55678 | 24154 ft | 441 kts | 305° |
| 2026-04-24 21:19 | 50.10948 | 8.52152 | 24152 ft | 444 kts | 316° |
| 2026-04-24 21:19 | 50.13468 | 8.49343 | 24150 ft | 449 kts | 328° |
| 2026-04-24 21:20 | 50.19315 | 8.45775 | 24166 ft | 453 kts | 338° |
| 2026-04-24 21:20 | 50.22298 | 8.44175 | 24158 ft | 453 kts | 338° |
| 2026-04-24 21:20 | 50.25282 | 8.42569 | 24156 ft | 454 kts | 338° |
| 2026-04-24 21:21 | 50.28241 | 8.40879 | 24156 ft | 451 kts | 333° |
| 2026-04-24 21:21 | 50.31013 | 8.38620 | 24160 ft | 448 kts | 325° |
| 2026-04-24 21:21 | 50.33635 | 8.35996 | 24163 ft | 447 kts | 324° |
| 2026-04-24 21:21 | 50.36256 | 8.33370 | 24168 ft | 447 kts | 324° |
| 2026-04-24 21:22 | 50.38869 | 8.30756 | 24044 ft | 442 kts | 324° |
| 2026-04-24 21:22 | 50.41447 | 8.28184 | 23820 ft | 437 kts | 324° |
| 2026-04-24 21:22 | 50.43991 | 8.25646 | 23105 ft | 431 kts | 324° |
| 2026-04-24 21:22 | 50.45662 | 8.23975 | 22589 ft | 428 kts | 324° |
| 2026-04-24 21:23 | 50.48998 | 8.20636 | 21583 ft | 422 kts | 324° |
| 2026-04-24 21:23 | 50.51454 | 8.18167 | 20821 ft | 418 kts | 324° |
| 2026-04-24 21:23 | 50.53893 | 8.15709 | 20084 ft | 414 kts | 324° |
| 2026-04-24 21:23 | 50.56306 | 8.13276 | 19361 ft | 411 kts | 325° |
| 2026-04-24 21:24 | 50.58708 | 8.10852 | 18659 ft | 409 kts | 325° |
| 2026-04-24 21:24 | 50.61097 | 8.08441 | 17925 ft | 406 kts | 325° |
| 2026-04-24 21:24 | 50.62666 | 8.06854 | 17498 ft | 403 kts | 325° |
| 2026-04-24 21:24 | 50.65016 | 8.04474 | 16865 ft | 400 kts | 326° |
| 2026-04-24 21:25 | 50.67344 | 8.02110 | 16253 ft | 397 kts | 326° |
| 2026-04-24 21:25 | 50.69654 | 7.99753 | 15624 ft | 394 kts | 324° |
| 2026-04-24 21:25 | 50.71717 | 7.96959 | 14998 ft | 390 kts | 310° |
| 2026-04-24 21:25 | 50.73235 | 7.93440 | 14349 ft | 387 kts | 296° |
| 2026-04-24 21:26 | 50.74114 | 7.89450 | 13703 ft | 384 kts | 281° |
| 2026-04-24 21:26 | 50.74304 | 7.85279 | 13085 ft | 380 kts | 267° |
| 2026-04-24 21:26 | 50.73902 | 7.81164 | 12494 ft | 378 kts | 260° |
| 2026-04-24 21:26 | 50.73411 | 7.77096 | 11904 ft | 376 kts | 260° |
| 2026-04-24 21:27 | 50.72925 | 7.73057 | 11313 ft | 374 kts | 260° |
| 2026-04-24 21:27 | 50.72447 | 7.69090 | 11052 ft | 360 kts | 260° |
| 2026-04-24 21:27 | 50.72001 | 7.65407 | 10930 ft | 345 kts | 260° |
| 2026-04-24 21:27 | 50.71560 | 7.61769 | 10806 ft | 331 kts | 260° |
| 2026-04-24 21:28 | 50.71137 | 7.58275 | 10690 ft | 318 kts | 260° |
| 2026-04-24 21:28 | 50.70910 | 7.54880 | 10573 ft | 306 kts | 272° |
| 2026-04-24 21:28 | 50.71202 | 7.51624 | 10420 ft | 295 kts | 287° |
| 2026-04-24 21:28 | 50.71963 | 7.48668 | 10277 ft | 287 kts | 301° |
| 2026-04-24 21:29 | 50.73031 | 7.46012 | 10223 ft | 288 kts | 303° |
| 2026-04-24 21:29 | 50.74115 | 7.43346 | 9957 ft | 290 kts | 303° |
| 2026-04-24 21:29 | 50.75194 | 7.40668 | 9594 ft | 288 kts | 303° |
| 2026-04-24 21:29 | 50.76267 | 7.37995 | 9251 ft | 287 kts | 303° |
| 2026-04-24 21:30 | 50.77332 | 7.35339 | 8907 ft | 286 kts | 303° |
| 2026-04-24 21:30 | 50.78391 | 7.32701 | 8646 ft | 281 kts | 303° |
| 2026-04-24 21:30 | 50.79421 | 7.30135 | 8530 ft | 272 kts | 303° |
| 2026-04-24 21:30 | 50.80181 | 7.27458 | 8402 ft | 266 kts | 284° |
| 2026-04-24 21:31 | 50.80257 | 7.24620 | 8270 ft | 260 kts | 262° |
| 2026-04-24 21:31 | 50.79687 | 7.21947 | 8098 ft | 256 kts | 246° |
| 2026-04-24 21:31 | 50.78919 | 7.19398 | 7772 ft | 256 kts | 246° |
| 2026-04-24 21:31 | 50.78148 | 7.16871 | 7512 ft | 254 kts | 246° |
| 2026-04-24 21:32 | 50.77382 | 7.14368 | 7262 ft | 251 kts | 246° |
| 2026-04-24 21:32 | 50.76627 | 7.11886 | 7026 ft | 250 kts | 246° |
| 2026-04-24 21:32 | 50.75875 | 7.09416 | 6776 ft | 249 kts | 246° |
| 2026-04-24 21:32 | 50.75124 | 7.06960 | 6524 ft | 248 kts | 246° |
| 2026-04-24 21:33 | 50.74374 | 7.04513 | 6271 ft | 247 kts | 246° |
| 2026-04-24 21:33 | 50.73626 | 7.02077 | 6001 ft | 247 kts | 246° |
| 2026-04-24 21:33 | 50.72871 | 6.99616 | 5614 ft | 250 kts | 246° |
| 2026-04-24 21:33 | 50.72118 | 6.97153 | 5351 ft | 248 kts | 246° |
| 2026-04-24 21:34 | 50.71376 | 6.94720 | 5087 ft | 245 kts | 246° |
| 2026-04-24 21:34 | 50.70652 | 6.92301 | 4837 ft | 242 kts | 251° |
| 2026-04-24 21:34 | 50.70465 | 6.89774 | 4693 ft | 228 kts | 283° |
| 2026-04-24 21:34 | 50.71096 | 6.87595 | 4561 ft | 214 kts | 313° |
| 2026-04-24 21:35 | 50.72248 | 6.86259 | 4423 ft | 202 kts | 336° |
| 2026-04-24 21:35 | 50.73499 | 6.85323 | 4192 ft | 196 kts | 335° |
| 2026-04-24 21:35 | 50.74707 | 6.84404 | 4012 ft | 188 kts | 335° |
| 2026-04-24 21:35 | 50.75907 | 6.83735 | 3892 ft | 179 kts | 357° |
| 2026-04-24 21:36 | 50.77063 | 6.84168 | 3796 ft | 168 kts | 31° |
| 2026-04-24 21:36 | 50.77826 | 6.85510 | 3633 ft | 167 kts | 62° |
| 2026-04-24 21:36 | 50.78328 | 6.87157 | 3485 ft | 166 kts | 62° |
| 2026-04-24 21:36 | 50.78831 | 6.88801 | 3321 ft | 166 kts | 62° |
| 2026-04-24 21:37 | 50.79333 | 6.90443 | 3167 ft | 166 kts | 62° |
| 2026-04-24 21:37 | 50.79835 | 6.92082 | 3006 ft | 165 kts | 62° |
| 2026-04-24 21:37 | 50.80335 | 6.93715 | 2809 ft | 164 kts | 62° |
| 2026-04-24 21:37 | 50.80816 | 6.95293 | 2574 ft | 155 kts | 62° |
| 2026-04-24 21:38 | 50.81277 | 6.96800 | 2376 ft | 150 kts | 62° |
| 2026-04-24 21:38 | 50.81723 | 6.98263 | 2175 ft | 148 kts | 62° |
| 2026-04-24 21:38 | 50.82167 | 6.99723 | 1979 ft | 147 kts | 61° |
| 2026-04-24 21:38 | 50.82616 | 7.01178 | 1751 ft | 146 kts | 61° |
| 2026-04-24 21:39 | 50.83057 | 7.02624 | 1555 ft | 146 kts | 62° |
| 2026-04-24 21:39 | 50.83490 | 7.04075 | 1402 ft | 146 kts | 62° |
| 2026-04-24 21:39 | 50.83928 | 7.05524 | 1199 ft | 146 kts | 63° |
| 2026-04-24 21:39 | 50.84369 | 7.06981 | 997 ft | 146 kts | 63° |
| 2026-04-24 21:40 | 50.84812 | 7.08402 | 797 ft | 146 kts | 62° |
| 2026-04-24 21:40 | 50.85258 | 7.09847 | 583 ft | 145 kts | 64° |
| 2026-04-24 21:40 | 50.85686 | 7.11304 | 400 ft | 145 kts | 63° |
| 2026-04-24 21:40 | 50.86127 | 7.12744 | 245 ft | 141 kts | 64° |
| 2026-04-24 21:41 | 50.86489 | 7.13937 | 253 ft | 96 kts | 64° |
| 2026-04-24 21:41 | 50.86620 | 7.14377 | 258 ft | 23 kts | 65° |
| 2026-04-24 21:41 | 50.86692 | 7.14410 | 260 ft | 12 kts | 324° |
| 2026-04-24 21:41 | 50.86765 | 7.14306 | 258 ft | 17 kts | 318° |
| 2026-04-24 21:42 | 50.86866 | 7.14162 | 253 ft | 21 kts | 316° |
| 2026-04-24 21:42 | 50.86940 | 7.13929 | 244 ft | 27 kts | 297° |
| 2026-04-24 21:42 | 50.87042 | 7.13756 | 242 ft | 22 kts | 321° |
| 2026-04-24 21:42 | 50.87163 | 7.13583 | 239 ft | 26 kts | 314° |
| 2026-04-24 21:43 | 50.87302 | 7.13373 | 235 ft | 29 kts | 318° |
| 2026-04-24 21:43 | 50.87459 | 7.13142 | 232 ft | 32 kts | 317° |
| 2026-04-24 21:43 | 50.87628 | 7.12901 | 230 ft | 24 kts | 318° |
| 2026-04-24 21:43 | 50.87756 | 7.12713 | 230 ft | 23 kts | 317° |
| 2026-04-24 21:44 | 50.87869 | 7.12608 | 230 ft | 18 kts | 359° |
| 2026-04-24 21:44 | 50.87984 | 7.12593 | 230 ft | 16 kts | 323° |
| 2026-04-24 21:44 | 50.88049 | 7.12435 | 230 ft | 17 kts | 298° |
| 2026-04-24 21:44 | 50.88104 | 7.12314 | 230 ft | 12 kts | 308° |
| 2026-04-24 21:45 | 50.88148 | 7.12216 | 231 ft | 12 kts | 303° |
| 2026-04-24 21:45 | 50.88152 | 7.12148 | 230 ft | 4 kts | 224° |